sensor_id;sensor_type;location;lat;lon;timestamp;pressure;altitude;pressure_sealevel;temperature;humidity
9439;BME280;5176;42.622;25.386;2022-10-16T00:00:05;97961.06;;;9.06;90.74
9439;BME280;5176;42.622;25.386;2022-10-16T00:02:34;97955.25;;;8.99;91.75
9439;BME280;5176;42.622;25.386;2022-10-16T00:05:03;97956.78;;;9.22;91.21
9439;BME280;5176;42.622;25.386;2022-10-16T00:07:32;97962.25;;;9.18;89.67
9439;BME280;5176;42.622;25.386;2022-10-16T00:10:01;97956.38;;;9.13;90.17
9439;BME280;5176;42.622;25.386;2022-10-16T00:12:29;97956.75;;;8.86;91.13
9439;BME280;5176;42.622;25.386;2022-10-16T00:14:58;97964.69;;;9.04;88.61
9439;BME280;5176;42.622;25.386;2022-10-16T00:17:29;97964.94;;;8.97;90.25
9439;BME280;5176;42.622;25.386;2022-10-16T00:19:58;97967.06;;;8.70;91.13
9439;BME280;5176;42.622;25.386;2022-10-16T00:22:27;97962.13;;;8.83;92.77
9439;BME280;5176;42.622;25.386;2022-10-16T00:24:55;97967.34;;;9.02;90.94
9439;BME280;5176;42.622;25.386;2022-10-16T00:27:24;97971.59;;;8.86;91.36
9439;BME280;5176;42.622;25.386;2022-10-16T00:29:53;97972.00;;;8.95;90.32
9439;BME280;5176;42.622;25.386;2022-10-16T00:32:21;97972.13;;;8.73;91.76
9439;BME280;5176;42.622;25.386;2022-10-16T00:34:51;97971.84;;;8.80;90.96
9439;BME280;5176;42.622;25.386;2022-10-16T00:37:21;97975.50;;;8.57;91.85
9439;BME280;5176;42.622;25.386;2022-10-16T00:39:50;97980.38;;;8.64;91.52
9439;BME280;5176;42.622;25.386;2022-10-16T00:42:19;97986.84;;;8.56;91.55
9439;BME280;5176;42.622;25.386;2022-10-16T00:44:49;97983.03;;;8.44;91.38
9439;BME280;5176;42.622;25.386;2022-10-16T00:47:22;97987.75;;;8.34;93.03
9439;BME280;5176;42.622;25.386;2022-10-16T00:49:58;97987.66;;;8.37;93.85
9439;BME280;5176;42.622;25.386;2022-10-16T00:52:28;97995.84;;;8.50;92.18
9439;BME280;5176;42.622;25.386;2022-10-16T00:54:58;97989.44;;;8.37;93.43
9439;BME280;5176;42.622;25.386;2022-10-16T00:57:28;97996.13;;;8.42;92.36
9439;BME280;5176;42.622;25.386;2022-10-16T00:59:57;97990.53;;;8.52;91.62
9439;BME280;5176;42.622;25.386;2022-10-16T01:02:26;98003.00;;;8.65;91.38
9439;BME280;5176;42.622;25.386;2022-10-16T01:04:56;97997.25;;;8.57;90.83
9439;BME280;5176;42.622;25.386;2022-10-16T01:07:34;97998.47;;;8.49;91.62
9439;BME280;5176;42.622;25.386;2022-10-16T01:10:13;98005.72;;;8.62;89.73
9439;BME280;5176;42.622;25.386;2022-10-16T01:12:48;98007.38;;;8.65;89.13
9439;BME280;5176;42.622;25.386;2022-10-16T01:15:24;97996.03;;;8.45;88.89
9439;BME280;5176;42.622;25.386;2022-10-16T01:17:59;97999.13;;;8.33;89.45
9439;BME280;5176;42.622;25.386;2022-10-16T01:20:33;98006.81;;;8.38;89.84
9439;BME280;5176;42.622;25.386;2022-10-16T01:23:12;98009.81;;;8.27;90.00
9439;BME280;5176;42.622;25.386;2022-10-16T01:26:02;97998.84;;;8.19;91.85
9439;BME280;5176;42.622;25.386;2022-10-16T01:28:41;98008.72;;;8.33;91.70
9439;BME280;5176;42.622;25.386;2022-10-16T01:31:15;98002.84;;;8.28;91.24
9439;BME280;5176;42.622;25.386;2022-10-16T01:33:49;98009.50;;;8.35;91.40
9439;BME280;5176;42.622;25.386;2022-10-16T01:36:25;98004.25;;;7.94;93.72
9439;BME280;5176;42.622;25.386;2022-10-16T01:38:57;98010.53;;;7.90;94.71
9439;BME280;5176;42.622;25.386;2022-10-16T01:41:32;98002.75;;;8.09;93.49
9439;BME280;5176;42.622;25.386;2022-10-16T01:44:05;98000.00;;;7.91;93.97
9439;BME280;5176;42.622;25.386;2022-10-16T01:46:37;98013.47;;;7.81;94.64
9439;BME280;5176;42.622;25.386;2022-10-16T01:49:09;98008.50;;;7.75;95.23
9439;BME280;5176;42.622;25.386;2022-10-16T01:51:39;98010.34;;;7.73;96.07
9439;BME280;5176;42.622;25.386;2022-10-16T01:54:08;98007.16;;;7.86;95.46
9439;BME280;5176;42.622;25.386;2022-10-16T01:56:39;98008.75;;;7.90;95.82
9439;BME280;5176;42.622;25.386;2022-10-16T01:59:12;98007.91;;;7.90;95.91
9439;BME280;5176;42.622;25.386;2022-10-16T02:01:45;98009.41;;;7.96;96.32
9439;BME280;5176;42.622;25.386;2022-10-16T02:04:18;98011.75;;;8.02;95.78
9439;BME280;5176;42.622;25.386;2022-10-16T02:06:48;98007.44;;;8.01;96.35
9439;BME280;5176;42.622;25.386;2022-10-16T02:09:17;98024.72;;;8.05;95.76
9439;BME280;5176;42.622;25.386;2022-10-16T02:11:46;98020.16;;;7.88;95.50
9439;BME280;5176;42.622;25.386;2022-10-16T02:14:17;98019.75;;;7.77;95.57
9439;BME280;5176;42.622;25.386;2022-10-16T02:16:47;98019.00;;;7.73;95.35
9439;BME280;5176;42.622;25.386;2022-10-16T02:19:17;98021.38;;;7.79;94.43
9439;BME280;5176;42.622;25.386;2022-10-16T02:21:51;98028.91;;;7.87;93.92
9439;BME280;5176;42.622;25.386;2022-10-16T02:24:27;98026.91;;;7.72;95.14
9439;BME280;5176;42.622;25.386;2022-10-16T02:27:03;98026.13;;;7.70;95.19
9439;BME280;5176;42.622;25.386;2022-10-16T02:29:39;98023.28;;;7.76;94.87
9439;BME280;5176;42.622;25.386;2022-10-16T02:32:13;98019.69;;;7.78;94.65
9439;BME280;5176;42.622;25.386;2022-10-16T02:34:44;98023.16;;;7.79;94.07
9439;BME280;5176;42.622;25.386;2022-10-16T02:37:13;98029.88;;;7.84;93.95
9439;BME280;5176;42.622;25.386;2022-10-16T02:39:42;98022.22;;;7.80;92.34
9439;BME280;5176;42.622;25.386;2022-10-16T02:42:12;98030.34;;;7.94;91.05
9439;BME280;5176;42.622;25.386;2022-10-16T02:44:42;98023.94;;;8.03;89.54
9439;BME280;5176;42.622;25.386;2022-10-16T02:47:11;98019.66;;;8.00;89.00
9439;BME280;5176;42.622;25.386;2022-10-16T02:49:40;98033.25;;;8.08;88.50
9439;BME280;5176;42.622;25.386;2022-10-16T02:52:09;98036.56;;;7.91;87.99
9439;BME280;5176;42.622;25.386;2022-10-16T02:54:38;98031.16;;;7.96;88.59
9439;BME280;5176;42.622;25.386;2022-10-16T02:57:06;98040.41;;;7.83;88.49
9439;BME280;5176;42.622;25.386;2022-10-16T02:59:35;98035.69;;;7.47;91.63
9439;BME280;5176;42.622;25.386;2022-10-16T03:02:06;98048.56;;;7.74;91.06
9439;BME280;5176;42.622;25.386;2022-10-16T03:04:35;98050.16;;;7.78;90.75
9439;BME280;5176;42.622;25.386;2022-10-16T03:07:04;98056.47;;;7.72;90.28
9439;BME280;5176;42.622;25.386;2022-10-16T03:09:32;98059.31;;;7.44;92.09
9439;BME280;5176;42.622;25.386;2022-10-16T03:12:01;98058.94;;;7.53;91.93
9439;BME280;5176;42.622;25.386;2022-10-16T03:14:30;98063.84;;;7.39;91.87
9439;BME280;5176;42.622;25.386;2022-10-16T03:16:59;98064.84;;;7.35;93.94
9439;BME280;5176;42.622;25.386;2022-10-16T03:19:29;98066.47;;;7.16;94.64
9439;BME280;5176;42.622;25.386;2022-10-16T03:21:58;98065.03;;;7.07;94.62
9439;BME280;5176;42.622;25.386;2022-10-16T03:24:27;98067.88;;;7.24;93.80
9439;BME280;5176;42.622;25.386;2022-10-16T03:26:57;98062.72;;;7.23;93.15
9439;BME280;5176;42.622;25.386;2022-10-16T03:29:26;98066.44;;;6.92;95.95
9439;BME280;5176;42.622;25.386;2022-10-16T03:31:56;98064.97;;;6.85;96.14
9439;BME280;5176;42.622;25.386;2022-10-16T03:34:25;98067.19;;;6.96;95.99
9439;BME280;5176;42.622;25.386;2022-10-16T03:36:55;98069.97;;;6.91;96.53
9439;BME280;5176;42.622;25.386;2022-10-16T03:39:24;98069.97;;;6.91;95.71
9439;BME280;5176;42.622;25.386;2022-10-16T03:41:52;98072.41;;;6.96;97.19
9439;BME280;5176;42.622;25.386;2022-10-16T03:44:21;98076.09;;;6.90;97.05
9439;BME280;5176;42.622;25.386;2022-10-16T03:46:50;98080.94;;;6.76;96.44
9439;BME280;5176;42.622;25.386;2022-10-16T03:49:19;98086.38;;;6.93;96.30
9439;BME280;5176;42.622;25.386;2022-10-16T03:51:47;98078.00;;;6.85;95.66
9439;BME280;5176;42.622;25.386;2022-10-16T03:54:18;98084.81;;;7.13;95.16
9439;BME280;5176;42.622;25.386;2022-10-16T03:56:46;98086.22;;;7.21;93.85
9439;BME280;5176;42.622;25.386;2022-10-16T03:59:15;98088.13;;;6.93;94.16
9439;BME280;5176;42.622;25.386;2022-10-16T04:01:44;98088.25;;;6.90;95.85
9439;BME280;5176;42.622;25.386;2022-10-16T04:04:12;98087.72;;;7.05;95.06
9439;BME280;5176;42.622;25.386;2022-10-16T04:06:41;98090.88;;;7.13;95.20
9439;BME280;5176;42.622;25.386;2022-10-16T04:09:09;98094.06;;;7.21;93.54
9439;BME280;5176;42.622;25.386;2022-10-16T04:11:39;98095.25;;;7.13;92.47
9439;BME280;5176;42.622;25.386;2022-10-16T04:14:08;98085.59;;;7.15;93.31
9439;BME280;5176;42.622;25.386;2022-10-16T04:16:37;98086.84;;;7.28;93.07
9439;BME280;5176;42.622;25.386;2022-10-16T04:19:06;98090.66;;;6.96;94.37
9439;BME280;5176;42.622;25.386;2022-10-16T04:21:34;98086.72;;;7.07;94.69
9439;BME280;5176;42.622;25.386;2022-10-16T04:24:03;98094.19;;;7.18;93.79
9439;BME280;5176;42.622;25.386;2022-10-16T04:26:33;98097.44;;;7.00;93.66
9439;BME280;5176;42.622;25.386;2022-10-16T04:29:03;98098.41;;;7.21;93.27
9439;BME280;5176;42.622;25.386;2022-10-16T04:31:31;98100.03;;;7.25;92.22
9439;BME280;5176;42.622;25.386;2022-10-16T04:34:00;98094.75;;;7.26;93.99
9439;BME280;5176;42.622;25.386;2022-10-16T04:36:29;98091.41;;;7.23;93.68
9439;BME280;5176;42.622;25.386;2022-10-16T04:38:58;98092.63;;;7.13;94.78
9439;BME280;5176;42.622;25.386;2022-10-16T04:41:26;98101.25;;;7.15;94.16
9439;BME280;5176;42.622;25.386;2022-10-16T04:43:55;98096.78;;;7.18;91.83
9439;BME280;5176;42.622;25.386;2022-10-16T04:46:25;98102.91;;;7.17;92.37
9439;BME280;5176;42.622;25.386;2022-10-16T04:48:54;98099.25;;;6.98;93.59
9439;BME280;5176;42.622;25.386;2022-10-16T04:51:23;98097.56;;;6.97;93.28
9439;BME280;5176;42.622;25.386;2022-10-16T04:53:52;98096.88;;;7.15;92.56
9439;BME280;5176;42.622;25.386;2022-10-16T04:56:21;98104.94;;;7.32;91.27
9439;BME280;5176;42.622;25.386;2022-10-16T04:58:49;98117.81;;;7.14;92.09
9439;BME280;5176;42.622;25.386;2022-10-16T05:01:18;98117.38;;;7.01;94.15
9439;BME280;5176;42.622;25.386;2022-10-16T05:03:48;98120.34;;;6.92;95.86
9439;BME280;5176;42.622;25.386;2022-10-16T05:06:17;98123.16;;;7.10;96.34
9439;BME280;5176;42.622;25.386;2022-10-16T05:08:45;98125.53;;;7.17;95.14
9439;BME280;5176;42.622;25.386;2022-10-16T05:11:14;98133.28;;;7.18;95.56
9439;BME280;5176;42.622;25.386;2022-10-16T05:13:43;98135.34;;;7.33;95.29
9439;BME280;5176;42.622;25.386;2022-10-16T05:16:11;98134.56;;;7.31;96.25
9439;BME280;5176;42.622;25.386;2022-10-16T05:18:40;98118.63;;;7.39;96.04
9439;BME280;5176;42.622;25.386;2022-10-16T05:21:10;98094.34;;;7.14;96.83
9439;BME280;5176;42.622;25.386;2022-10-16T05:23:39;98124.31;;;7.49;96.16
9439;BME280;5176;42.622;25.386;2022-10-16T05:26:08;98122.34;;;7.55;95.62
9439;BME280;5176;42.622;25.386;2022-10-16T05:28:37;98130.06;;;7.35;97.29
9439;BME280;5176;42.622;25.386;2022-10-16T05:31:06;98125.88;;;7.31;97.61
9439;BME280;5176;42.622;25.386;2022-10-16T05:33:35;98130.03;;;7.36;97.93
9439;BME280;5176;42.622;25.386;2022-10-16T05:36:06;98132.00;;;7.53;95.58
9439;BME280;5176;42.622;25.386;2022-10-16T05:38:37;98131.31;;;7.48;95.39
9439;BME280;5176;42.622;25.386;2022-10-16T05:41:06;98141.94;;;7.44;96.91
9439;BME280;5176;42.622;25.386;2022-10-16T05:43:34;98138.97;;;7.53;96.22
9439;BME280;5176;42.622;25.386;2022-10-16T05:46:04;98142.28;;;7.58;96.28
9439;BME280;5176;42.622;25.386;2022-10-16T05:48:33;98149.75;;;7.67;97.42
9439;BME280;5176;42.622;25.386;2022-10-16T05:51:04;98165.69;;;7.59;98.40
9439;BME280;5176;42.622;25.386;2022-10-16T05:53:36;98157.00;;;7.82;98.23
9439;BME280;5176;42.622;25.386;2022-10-16T05:56:06;98162.59;;;7.95;96.18
9439;BME280;5176;42.622;25.386;2022-10-16T05:58:36;98159.72;;;8.03;97.18
9439;BME280;5176;42.622;25.386;2022-10-16T06:01:10;98166.09;;;8.17;97.49
9439;BME280;5176;42.622;25.386;2022-10-16T06:03:39;98163.34;;;8.20;96.83
9439;BME280;5176;42.622;25.386;2022-10-16T06:06:09;98167.41;;;8.28;98.68
9439;BME280;5176;42.622;25.386;2022-10-16T06:08:40;98159.84;;;8.43;98.08
9439;BME280;5176;42.622;25.386;2022-10-16T06:11:11;98158.09;;;8.44;97.74
9439;BME280;5176;42.622;25.386;2022-10-16T06:13:40;98158.81;;;8.68;97.39
9439;BME280;5176;42.622;25.386;2022-10-16T06:16:10;98165.78;;;8.89;96.55
9439;BME280;5176;42.622;25.386;2022-10-16T06:18:39;98155.44;;;9.07;94.11
9439;BME280;5176;42.622;25.386;2022-10-16T06:21:09;98161.66;;;9.24;93.21
9439;BME280;5176;42.622;25.386;2022-10-16T06:23:39;98155.03;;;9.36;92.71
9439;BME280;5176;42.622;25.386;2022-10-16T06:26:10;98165.03;;;9.47;93.52
9439;BME280;5176;42.622;25.386;2022-10-16T06:28:39;98168.59;;;9.65;92.84
9439;BME280;5176;42.622;25.386;2022-10-16T06:31:09;98177.44;;;9.81;91.69
9439;BME280;5176;42.622;25.386;2022-10-16T06:33:39;98173.25;;;9.96;91.43
9439;BME280;5176;42.622;25.386;2022-10-16T06:36:10;98178.09;;;10.05;90.18
9439;BME280;5176;42.622;25.386;2022-10-16T06:38:41;98184.56;;;10.15;90.68
9439;BME280;5176;42.622;25.386;2022-10-16T06:41:11;98181.50;;;10.26;91.26
9439;BME280;5176;42.622;25.386;2022-10-16T06:43:40;98186.16;;;10.38;90.61
9439;BME280;5176;42.622;25.386;2022-10-16T06:46:13;98188.09;;;10.52;90.25
9439;BME280;5176;42.622;25.386;2022-10-16T06:48:42;98194.53;;;10.63;89.58
9439;BME280;5176;42.622;25.386;2022-10-16T06:51:12;98198.84;;;10.82;89.20
9439;BME280;5176;42.622;25.386;2022-10-16T06:53:44;98200.78;;;10.96;88.97
9439;BME280;5176;42.622;25.386;2022-10-16T06:56:14;98202.56;;;10.95;89.51
9439;BME280;5176;42.622;25.386;2022-10-16T06:58:44;98202.50;;;11.14;88.48
9439;BME280;5176;42.622;25.386;2022-10-16T07:01:14;98192.97;;;11.29;88.00
9439;BME280;5176;42.622;25.386;2022-10-16T07:03:44;98199.81;;;11.49;88.15
9439;BME280;5176;42.622;25.386;2022-10-16T07:06:14;98198.97;;;11.65;86.29
9439;BME280;5176;42.622;25.386;2022-10-16T07:08:46;98198.78;;;11.86;86.40
9439;BME280;5176;42.622;25.386;2022-10-16T07:11:17;98197.78;;;12.04;85.29
9439;BME280;5176;42.622;25.386;2022-10-16T07:13:46;98200.06;;;12.10;84.25
9439;BME280;5176;42.622;25.386;2022-10-16T07:16:17;98202.78;;;12.24;82.75
9439;BME280;5176;42.622;25.386;2022-10-16T07:18:46;98203.72;;;12.39;82.79
9439;BME280;5176;42.622;25.386;2022-10-16T07:21:17;98204.63;;;12.54;81.92
9439;BME280;5176;42.622;25.386;2022-10-16T07:23:50;98210.81;;;12.69;80.06
9439;BME280;5176;42.622;25.386;2022-10-16T07:26:19;98201.03;;;12.87;79.34
9439;BME280;5176;42.622;25.386;2022-10-16T07:28:48;98201.31;;;12.96;75.49
9439;BME280;5176;42.622;25.386;2022-10-16T07:31:19;98201.47;;;13.09;73.99
9439;BME280;5176;42.622;25.386;2022-10-16T07:33:48;98196.59;;;13.17;71.58
9439;BME280;5176;42.622;25.386;2022-10-16T07:36:18;98200.91;;;13.34;71.22
9439;BME280;5176;42.622;25.386;2022-10-16T07:38:48;98205.59;;;13.43;70.19
9439;BME280;5176;42.622;25.386;2022-10-16T07:41:18;98201.75;;;13.63;69.71
9439;BME280;5176;42.622;25.386;2022-10-16T07:43:48;98201.59;;;13.95;69.09
9439;BME280;5176;42.622;25.386;2022-10-16T07:46:17;98195.94;;;14.42;67.57
9439;BME280;5176;42.622;25.386;2022-10-16T07:48:46;98202.38;;;14.79;64.79
9439;BME280;5176;42.622;25.386;2022-10-16T07:51:16;98190.38;;;15.01;61.75
9439;BME280;5176;42.622;25.386;2022-10-16T07:53:47;98198.25;;;15.27;60.35
9439;BME280;5176;42.622;25.386;2022-10-16T07:56:17;98200.25;;;15.49;59.33
9439;BME280;5176;42.622;25.386;2022-10-16T07:58:47;98197.66;;;15.88;57.46
9439;BME280;5176;42.622;25.386;2022-10-16T08:01:17;98201.84;;;16.03;54.63
9439;BME280;5176;42.622;25.386;2022-10-16T08:03:47;98195.94;;;16.12;53.41
9439;BME280;5176;42.622;25.386;2022-10-16T08:06:18;98200.72;;;16.31;54.14
9439;BME280;5176;42.622;25.386;2022-10-16T08:08:49;98193.66;;;16.55;54.30
9439;BME280;5176;42.622;25.386;2022-10-16T08:11:18;98198.91;;;16.68;52.71
9439;BME280;5176;42.622;25.386;2022-10-16T08:13:46;98196.97;;;16.83;49.28
9439;BME280;5176;42.622;25.386;2022-10-16T08:16:15;98188.38;;;17.03;48.57
9439;BME280;5176;42.622;25.386;2022-10-16T08:18:44;98188.94;;;17.31;48.80
9439;BME280;5176;42.622;25.386;2022-10-16T08:21:15;98192.13;;;17.47;46.49
9439;BME280;5176;42.622;25.386;2022-10-16T08:23:44;98196.38;;;17.61;45.55
9439;BME280;5176;42.622;25.386;2022-10-16T08:26:15;98195.53;;;17.72;45.54
9439;BME280;5176;42.622;25.386;2022-10-16T08:28:43;98189.91;;;17.76;45.51
9439;BME280;5176;42.622;25.386;2022-10-16T08:31:14;98191.66;;;17.64;44.69
9439;BME280;5176;42.622;25.386;2022-10-16T08:33:44;98187.59;;;17.72;44.91
9439;BME280;5176;42.622;25.386;2022-10-16T08:36:15;98188.69;;;17.80;46.38
9439;BME280;5176;42.622;25.386;2022-10-16T08:38:46;98186.91;;;17.81;45.83
9439;BME280;5176;42.622;25.386;2022-10-16T08:41:23;98187.81;;;17.68;45.89
9439;BME280;5176;42.622;25.386;2022-10-16T08:47:02;98187.94;;;17.67;45.02
9439;BME280;5176;42.622;25.386;2022-10-16T08:49:34;98198.09;;;17.73;45.35
9439;BME280;5176;42.622;25.386;2022-10-16T08:52:04;98197.84;;;17.76;45.10
9439;BME280;5176;42.622;25.386;2022-10-16T08:54:36;98195.56;;;17.83;45.55
9439;BME280;5176;42.622;25.386;2022-10-16T08:57:11;98199.19;;;18.04;45.92
9439;BME280;5176;42.622;25.386;2022-10-16T08:59:40;98193.97;;;18.25;44.34
9439;BME280;5176;42.622;25.386;2022-10-16T09:02:26;98187.72;;;18.81;42.57
9439;BME280;5176;42.622;25.386;2022-10-16T09:08:07;98190.31;;;20.67;39.14
9439;BME280;5176;42.622;25.386;2022-10-16T09:10:46;98192.56;;;21.39;36.87
9439;BME280;5176;42.622;25.386;2022-10-16T09:13:24;98193.94;;;22.00;35.69
9439;BME280;5176;42.622;25.386;2022-10-16T09:16:14;98192.63;;;22.51;34.68
9439;BME280;5176;42.622;25.386;2022-10-16T09:18:53;98186.59;;;22.94;33.84
9439;BME280;5176;42.622;25.386;2022-10-16T09:21:26;98196.88;;;23.07;33.58
9439;BME280;5176;42.622;25.386;2022-10-16T09:23:59;98193.03;;;23.01;33.28
9439;BME280;5176;42.622;25.386;2022-10-16T09:26:34;98184.88;;;22.75;33.69
9439;BME280;5176;42.622;25.386;2022-10-16T09:29:04;98188.38;;;22.30;34.12
9439;BME280;5176;42.622;25.386;2022-10-16T09:31:36;98179.16;;;21.78;34.92
9439;BME280;5176;42.622;25.386;2022-10-16T09:34:06;98185.81;;;21.06;35.36
9439;BME280;5176;42.622;25.386;2022-10-16T09:36:46;98173.75;;;20.92;35.98
9439;BME280;5176;42.622;25.386;2022-10-16T09:39:14;98181.34;;;19.88;37.13
9439;BME280;5176;42.622;25.386;2022-10-16T09:41:44;98180.41;;;19.68;37.36
9439;BME280;5176;42.622;25.386;2022-10-16T09:44:19;98174.34;;;19.66;37.54
9439;BME280;5176;42.622;25.386;2022-10-16T09:47:01;98176.59;;;19.61;37.40
9439;BME280;5176;42.622;25.386;2022-10-16T09:49:30;98170.09;;;19.53;37.28
9439;BME280;5176;42.622;25.386;2022-10-16T09:52:05;98165.81;;;19.62;37.79
9439;BME280;5176;42.622;25.386;2022-10-16T09:54:34;98162.56;;;19.79;38.71
9439;BME280;5176;42.622;25.386;2022-10-16T09:57:05;98157.63;;;20.15;37.30
9439;BME280;5176;42.622;25.386;2022-10-16T09:59:46;98165.59;;;20.55;37.13
9439;BME280;5176;42.622;25.386;2022-10-16T10:02:16;98155.78;;;20.65;37.29
9439;BME280;5176;42.622;25.386;2022-10-16T10:04:50;98146.53;;;20.50;36.51
9439;BME280;5176;42.622;25.386;2022-10-16T10:07:24;98149.41;;;20.37;36.43
9439;BME280;5176;42.622;25.386;2022-10-16T10:09:54;98142.34;;;20.57;37.25
9439;BME280;5176;42.622;25.386;2022-10-16T10:12:24;98144.84;;;20.59;36.35
9439;BME280;5176;42.622;25.386;2022-10-16T10:14:56;98138.41;;;20.71;35.30
9439;BME280;5176;42.622;25.386;2022-10-16T10:17:26;98133.09;;;20.81;36.44
9439;BME280;5176;42.622;25.386;2022-10-16T10:19:58;98148.22;;;21.00;34.92
9439;BME280;5176;42.622;25.386;2022-10-16T10:22:32;98136.97;;;21.25;34.29
9439;BME280;5176;42.622;25.386;2022-10-16T10:25:27;98146.84;;;21.81;33.82
9439;BME280;5176;42.622;25.386;2022-10-16T10:28:14;98140.78;;;22.44;33.29
9439;BME280;5176;42.622;25.386;2022-10-16T10:30:53;98140.16;;;22.95;32.78
9439;BME280;5176;42.622;25.386;2022-10-16T10:33:29;98133.56;;;23.07;32.26
9439;BME280;5176;42.622;25.386;2022-10-16T10:36:09;98138.59;;;22.75;31.49
9439;BME280;5176;42.622;25.386;2022-10-16T10:38:47;98137.06;;;22.54;32.02
9439;BME280;5176;42.622;25.386;2022-10-16T10:41:32;98136.22;;;22.54;32.80
9439;BME280;5176;42.622;25.386;2022-10-16T10:44:12;98129.63;;;22.66;32.88
9439;BME280;5176;42.622;25.386;2022-10-16T10:46:50;98120.88;;;22.74;32.47
9439;BME280;5176;42.622;25.386;2022-10-16T10:49:34;98124.56;;;22.91;31.95
9439;BME280;5176;42.622;25.386;2022-10-16T10:52:19;98112.63;;;23.21;31.50
9439;BME280;5176;42.622;25.386;2022-10-16T10:55:02;98115.41;;;23.37;31.83
9439;BME280;5176;42.622;25.386;2022-10-16T10:57:37;98112.88;;;23.87;30.16
9439;BME280;5176;42.622;25.386;2022-10-16T11:00:20;98120.56;;;24.33;29.32
9439;BME280;5176;42.622;25.386;2022-10-16T11:03:00;98110.94;;;24.72;28.87
9439;BME280;5176;42.622;25.386;2022-10-16T11:05:40;98110.63;;;24.92;29.18
9439;BME280;5176;42.622;25.386;2022-10-16T11:08:15;98108.78;;;24.84;28.98
9439;BME280;5176;42.622;25.386;2022-10-16T11:10:50;98101.59;;;24.85;29.30
9439;BME280;5176;42.622;25.386;2022-10-16T11:13:28;98116.66;;;24.19;29.58
9439;BME280;5176;42.622;25.386;2022-10-16T11:15:59;98111.31;;;23.77;30.45
9439;BME280;5176;42.622;25.386;2022-10-16T11:18:37;98109.91;;;23.64;30.55
9439;BME280;5176;42.622;25.386;2022-10-16T11:21:13;98107.25;;;23.73;30.09
9439;BME280;5176;42.622;25.386;2022-10-16T11:23:45;98111.94;;;23.45;30.39
9439;BME280;5176;42.622;25.386;2022-10-16T11:26:21;98117.66;;;23.50;30.46
9439;BME280;5176;42.622;25.386;2022-10-16T11:28:51;98112.31;;;23.06;31.04
9439;BME280;5176;42.622;25.386;2022-10-16T11:31:28;98101.50;;;22.54;32.52
9439;BME280;5176;42.622;25.386;2022-10-16T11:34:06;98106.84;;;22.26;32.19
9439;BME280;5176;42.622;25.386;2022-10-16T11:36:46;98103.94;;;21.92;33.26
9439;BME280;5176;42.622;25.386;2022-10-16T11:39:20;98096.06;;;21.63;32.85
9439;BME280;5176;42.622;25.386;2022-10-16T11:41:51;98086.91;;;21.29;33.13
9439;BME280;5176;42.622;25.386;2022-10-16T11:44:33;98083.03;;;20.84;33.91
9439;BME280;5176;42.622;25.386;2022-10-16T11:47:11;98089.63;;;20.90;33.89
9439;BME280;5176;42.622;25.386;2022-10-16T11:49:44;98086.66;;;20.93;34.86
9439;BME280;5176;42.622;25.386;2022-10-16T11:52:19;98088.47;;;21.02;34.34
9439;BME280;5176;42.622;25.386;2022-10-16T11:54:53;98085.13;;;21.00;33.11
9439;BME280;5176;42.622;25.386;2022-10-16T11:57:26;98091.97;;;21.03;33.21
9439;BME280;5176;42.622;25.386;2022-10-16T11:59:59;98083.53;;;21.17;32.75
9439;BME280;5176;42.622;25.386;2022-10-16T12:02:37;98098.66;;;21.26;33.31
9439;BME280;5176;42.622;25.386;2022-10-16T12:05:22;98100.09;;;21.30;31.34
9439;BME280;5176;42.622;25.386;2022-10-16T12:07:59;98104.44;;;21.31;32.28
9439;BME280;5176;42.622;25.386;2022-10-16T12:10:31;98115.22;;;21.49;31.42
9439;BME280;5176;42.622;25.386;2022-10-16T12:13:04;98105.47;;;21.67;30.75
9439;BME280;5176;42.622;25.386;2022-10-16T12:15:34;98107.56;;;22.01;30.94
9439;BME280;5176;42.622;25.386;2022-10-16T12:18:02;98108.56;;;22.45;30.64
9439;BME280;5176;42.622;25.386;2022-10-16T12:20:33;98109.03;;;22.76;30.41
9439;BME280;5176;42.622;25.386;2022-10-16T12:23:05;98106.97;;;22.70;30.04
9439;BME280;5176;42.622;25.386;2022-10-16T12:25:36;98113.06;;;22.27;31.38
9439;BME280;5176;42.622;25.386;2022-10-16T12:28:20;98102.72;;;21.87;31.82
9439;BME280;5176;42.622;25.386;2022-10-16T12:30:53;98115.16;;;21.68;32.16
9439;BME280;5176;42.622;25.386;2022-10-16T12:33:25;98106.84;;;21.15;32.20
9439;BME280;5176;42.622;25.386;2022-10-16T12:35:56;98109.09;;;21.10;33.10
9439;BME280;5176;42.622;25.386;2022-10-16T12:38:28;98101.94;;;21.20;32.81
9439;BME280;5176;42.622;25.386;2022-10-16T12:41:01;98106.22;;;21.87;31.95
9439;BME280;5176;42.622;25.386;2022-10-16T12:43:37;98110.56;;;22.79;30.91
9439;BME280;5176;42.622;25.386;2022-10-16T12:46:39;98116.66;;;24.19;29.58
9439;BME280;5176;42.622;25.386;2022-10-16T12:49:22;98129.44;;;25.16;27.53
9439;BME280;5176;42.622;25.386;2022-10-16T12:51:54;98117.81;;;25.73;26.39
9439;BME280;5176;42.622;25.386;2022-10-16T12:54:28;98127.56;;;26.13;26.05
9439;BME280;5176;42.622;25.386;2022-10-16T12:57:09;98133.63;;;26.07;26.61
9439;BME280;5176;42.622;25.386;2022-10-16T12:59:46;98133.59;;;25.76;26.11
9439;BME280;5176;42.622;25.386;2022-10-16T13:05:28;98136.72;;;24.49;27.58
9439;BME280;5176;42.622;25.386;2022-10-16T13:08:18;98137.28;;;23.84;29.08
9439;BME280;5176;42.622;25.386;2022-10-16T13:10:59;98139.66;;;23.18;28.34
9439;BME280;5176;42.622;25.386;2022-10-16T13:13:59;98138.94;;;22.44;28.27
9439;BME280;5176;42.622;25.386;2022-10-16T13:16:37;98141.25;;;21.74;29.23
9439;BME280;5176;42.622;25.386;2022-10-16T13:19:17;98143.75;;;21.10;29.29
9439;BME280;5176;42.622;25.386;2022-10-16T13:21:53;98141.63;;;20.65;30.42
9439;BME280;5176;42.622;25.386;2022-10-16T13:24:39;98149.84;;;20.33;30.95
9439;BME280;5176;42.622;25.386;2022-10-16T13:27:20;98150.19;;;20.09;31.03
9439;BME280;5176;42.622;25.386;2022-10-16T13:29:54;98148.16;;;19.92;31.57
9439;BME280;5176;42.622;25.386;2022-10-16T13:32:28;98146.69;;;19.68;31.49
9439;BME280;5176;42.622;25.386;2022-10-16T13:34:57;98148.88;;;19.63;32.01
9439;BME280;5176;42.622;25.386;2022-10-16T13:37:28;98145.69;;;19.48;32.37
9439;BME280;5176;42.622;25.386;2022-10-16T13:40:12;98132.16;;;19.30;32.91
9439;BME280;5176;42.622;25.386;2022-10-16T13:42:46;98148.63;;;19.03;33.03
9439;BME280;5176;42.622;25.386;2022-10-16T13:45:19;98156.88;;;18.68;33.28
9439;BME280;5176;42.622;25.386;2022-10-16T13:47:48;98157.63;;;18.48;33.40
9439;BME280;5176;42.622;25.386;2022-10-16T13:50:18;98146.19;;;18.36;33.65
9439;BME280;5176;42.622;25.386;2022-10-16T13:52:47;98158.34;;;18.39;33.51